createdAt,value
2023-06-11T00:01:53.603Z,64.38
2023-06-11T00:04:25.743Z,64.76
2023-06-11T00:06:57.534Z,65.38
2023-06-11T00:09:24.937Z,65.27
2023-06-11T00:11:51.563Z,64.98
2023-06-11T00:14:18.138Z,64.51
2023-06-11T00:16:44.967Z,64.97
2023-06-11T00:19:13.092Z,65.61
2023-06-11T00:21:44.829Z,64.97
2023-06-11T00:24:13.284Z,65.69
2023-06-11T00:26:41.414Z,65.83
2023-06-11T00:29:11.702Z,66.07
2023-06-11T00:31:38.324Z,65.60
2023-06-11T00:34:05.154Z,66.43
2023-06-11T00:36:33.696Z,65.94
2023-06-11T00:39:00.421Z,65.77
2023-06-11T00:41:28.025Z,66.32
2023-06-11T00:43:55.473Z,66.57
2023-06-11T00:46:23.183Z,66.17
2023-06-11T00:48:51.646Z,66.22
2023-06-11T00:51:26.027Z,66.46
2023-06-11T00:53:53.570Z,66.85
2023-06-11T00:56:20.545Z,67.20
2023-06-11T00:58:49.716Z,66.80
2023-06-11T01:01:26.339Z,67.01
2023-06-11T01:03:57.607Z,67.55
2023-06-11T01:06:29.604Z,68.15
2023-06-11T01:09:00.656Z,67.76
2023-06-11T01:11:36.611Z,68.29
2023-06-11T01:14:14.050Z,68.44
2023-06-11T01:17:04.092Z,68.61
2023-06-11T01:19:53.795Z,67.91
2023-06-11T01:22:31.594Z,68.73
2023-06-11T01:25:11.976Z,68.96
2023-06-11T01:27:45.011Z,68.65
2023-06-11T01:30:21.877Z,68.78
2023-06-11T01:32:57.455Z,68.62
2023-06-11T01:35:29.807Z,68.98
2023-06-11T01:37:56.898Z,69.37
2023-06-11T01:40:29.787Z,69.26
2023-06-11T01:42:58.795Z,69.40
2023-06-11T01:45:26.188Z,69.46
2023-06-11T01:47:53.349Z,69.15
2023-06-11T01:50:21.660Z,69.84
2023-06-11T01:52:48.653Z,69.86
2023-06-11T01:55:15.988Z,69.85
2023-06-11T01:57:42.938Z,70.00
2023-06-11T02:00:12.010Z,69.86
2023-06-11T02:02:46.450Z,69.25
2023-06-11T02:05:14.372Z,68.83
2023-06-11T02:07:42.019Z,69.35
2023-06-11T02:10:08.904Z,70.37
2023-06-11T02:12:36.218Z,70.56
2023-06-11T02:15:05.139Z,70.64
2023-06-11T02:17:31.802Z,70.70
2023-06-11T02:19:58.409Z,70.67
2023-06-11T02:22:24.984Z,70.89
2023-06-11T02:24:52.482Z,70.04
2023-06-11T02:27:19.732Z,69.57
2023-06-11T02:29:48.041Z,69.01
2023-06-11T02:32:15.448Z,69.91
2023-06-11T02:34:42.243Z,70.96
2023-06-11T02:37:09.615Z,70.81
2023-06-11T02:39:36.295Z,70.37
2023-06-11T02:42:02.967Z,69.77
2023-06-11T02:44:29.600Z,69.98
2023-06-11T02:46:56.318Z,71.20
2023-06-11T02:49:22.930Z,70.75
2023-06-11T02:51:49.537Z,71.25
2023-06-11T02:54:16.298Z,71.52
2023-06-11T02:56:42.925Z,71.73
2023-06-11T02:59:09.530Z,71.30
2023-06-11T03:01:36.314Z,71.97
2023-06-11T03:04:03.168Z,72.26
2023-06-11T03:06:34.811Z,72.19
2023-06-11T03:09:01.950Z,71.87
2023-06-11T03:11:29.093Z,71.63
2023-06-11T03:13:56.115Z,72.01
2023-06-11T03:16:22.873Z,72.33
2023-06-11T03:18:49.487Z,71.81
2023-06-11T03:21:16.261Z,70.54
2023-06-11T03:23:43.000Z,70.51
2023-06-11T03:26:10.044Z,72.07
2023-06-11T03:28:41.441Z,72.71
2023-06-11T03:31:08.119Z,72.61
2023-06-11T03:33:34.896Z,72.73
2023-06-11T03:36:02.829Z,73.36
2023-06-11T03:38:29.463Z,73.13
2023-06-11T03:40:59.031Z,72.66
2023-06-11T03:43:29.999Z,71.96
2023-06-11T03:45:56.646Z,71.04
2023-06-11T03:48:23.397Z,71.99
2023-06-11T03:50:50.437Z,72.32
2023-06-11T03:53:17.174Z,72.47
2023-06-11T03:55:44.567Z,73.21
2023-06-11T03:58:13.663Z,73.53
2023-06-11T04:00:40.639Z,73.39
2023-06-11T04:03:08.045Z,72.51
2023-06-11T04:05:37.298Z,72.97
2023-06-11T04:08:05.216Z,73.08
2023-06-11T04:10:32.872Z,71.86
2023-06-11T04:12:59.482Z,72.04
2023-06-11T04:15:26.851Z,71.67
2023-06-11T04:17:55.033Z,71.86
2023-06-11T04:20:21.837Z,72.49
2023-06-11T04:22:48.802Z,73.17
2023-06-11T04:25:17.951Z,74.06
2023-06-11T04:27:48.042Z,73.79
2023-06-11T04:30:15.764Z,72.68
2023-06-11T04:32:44.381Z,72.50
2023-06-11T04:35:14.753Z,73.06
2023-06-11T04:37:44.678Z,73.80
2023-06-11T04:40:24.735Z,73.93
2023-06-11T04:42:52.084Z,73.47
2023-06-11T04:45:20.182Z,73.99
2023-06-11T04:47:48.221Z,73.33
2023-06-11T04:50:21.855Z,72.63
2023-06-11T04:52:53.174Z,72.49
2023-06-11T04:55:25.912Z,73.01
2023-06-11T04:57:55.345Z,72.88
2023-06-11T05:00:23.093Z,73.24
2023-06-11T05:02:50.897Z,73.07
2023-06-11T05:05:17.630Z,72.35
2023-06-11T05:07:44.572Z,72.49
2023-06-11T05:10:11.564Z,72.52
2023-06-11T05:12:39.160Z,71.93
2023-06-11T05:15:07.010Z,71.41
2023-06-11T05:17:35.020Z,71.06
2023-06-11T05:20:01.836Z,70.95
2023-06-11T05:22:28.557Z,70.93
2023-06-11T05:24:55.355Z,69.94
2023-06-11T05:27:24.688Z,69.50
2023-06-11T05:29:51.498Z,68.99
2023-06-11T05:32:19.185Z,68.36
2023-06-11T05:34:50.839Z,67.86
2023-06-11T05:37:17.673Z,67.59
2023-06-11T05:39:46.935Z,67.07
2023-06-11T05:42:13.628Z,67.05
2023-06-11T05:44:42.878Z,67.22
2023-06-11T05:47:09.831Z,66.92
2023-06-11T05:49:37.540Z,66.67
2023-06-11T05:52:04.405Z,67.01
2023-06-11T05:54:31.424Z,66.66
2023-06-11T05:56:59.133Z,66.52
2023-06-11T05:59:25.862Z,66.25
2023-06-11T06:01:52.692Z,66.51
2023-06-11T06:04:22.355Z,66.72
2023-06-11T06:06:49.048Z,66.21
2023-06-11T06:09:15.703Z,66.01
2023-06-11T06:11:43.467Z,65.57
2023-06-11T06:14:10.790Z,65.08
2023-06-11T06:16:38.545Z,65.51
2023-06-11T06:19:09.496Z,65.22
2023-06-11T06:21:36.201Z,64.70
2023-06-11T06:24:03.113Z,64.74
2023-06-11T06:26:29.861Z,64.80
2023-06-11T06:28:56.537Z,63.95
2023-06-11T06:31:24.185Z,63.81
2023-06-11T06:33:52.367Z,63.29
2023-06-11T06:36:21.224Z,62.95
2023-06-11T06:38:48.447Z,62.79
2023-06-11T06:41:15.996Z,62.04
2023-06-11T06:43:42.761Z,61.69
2023-06-11T06:46:14.139Z,61.29
2023-06-11T06:48:41.394Z,60.90
2023-06-11T06:51:08.745Z,60.79
2023-06-11T06:53:38.680Z,61.69
2023-06-11T06:56:06.980Z,61.32
2023-06-11T06:58:34.726Z,61.52
2023-06-11T07:01:01.529Z,61.26
2023-06-11T07:03:28.232Z,60.83
2023-06-11T07:05:56.788Z,60.55
2023-06-11T07:08:23.495Z,59.71
2023-06-11T07:10:52.220Z,59.18
2023-06-11T07:13:26.048Z,58.83
2023-06-11T07:15:56.169Z,59.03
2023-06-11T07:18:23.624Z,59.02
2023-06-11T07:20:50.209Z,60.00
2023-06-11T07:23:16.862Z,59.80
2023-06-11T07:25:45.109Z,58.54
2023-06-11T07:28:13.083Z,58.31
2023-06-11T07:30:39.841Z,58.49
2023-06-11T07:33:06.916Z,57.58
2023-06-11T07:35:35.063Z,58.16
2023-06-11T07:38:02.633Z,58.85
2023-06-11T07:40:29.459Z,58.16
2023-06-11T07:42:56.629Z,57.72
2023-06-11T07:45:23.461Z,57.43
2023-06-11T07:47:50.970Z,56.60
2023-06-11T07:50:17.961Z,56.29
2023-06-11T07:52:44.556Z,56.59
2023-06-11T07:55:23.523Z,55.84
2023-06-11T07:57:50.244Z,55.39
2023-06-11T08:00:18.271Z,54.75
2023-06-11T08:02:48.974Z,54.21
2023-06-11T08:05:19.471Z,54.73
2023-06-11T08:07:47.518Z,53.96
2023-06-11T08:10:14.386Z,54.23
2023-06-11T08:12:41.298Z,53.93
2023-06-11T08:15:08.253Z,53.85
2023-06-11T08:17:34.967Z,54.91
2023-06-11T08:20:02.103Z,54.62
2023-06-11T08:22:28.747Z,53.90
2023-06-11T08:24:55.485Z,52.77
2023-06-11T08:27:22.122Z,52.22
2023-06-11T08:29:48.752Z,51.84
2023-06-11T08:32:15.746Z,52.61
2023-06-11T08:34:42.462Z,52.99
2023-06-11T08:37:09.355Z,51.17
2023-06-11T08:39:36.303Z,50.46
2023-06-11T08:42:02.932Z,50.38
2023-06-11T08:44:29.594Z,50.51
2023-06-11T08:46:59.616Z,50.99
2023-06-11T08:49:26.601Z,51.34
2023-06-11T08:51:56.284Z,51.62
2023-06-11T08:54:23.171Z,50.98
2023-06-11T08:56:50.002Z,50.29
2023-06-11T08:59:17.315Z,50.90
2023-06-11T09:01:51.633Z,50.67
2023-06-11T09:04:19.721Z,49.08
2023-06-11T09:06:53.920Z,48.83
2023-06-11T09:09:20.650Z,46.91
2023-06-11T09:11:47.984Z,46.85
2023-06-11T09:14:14.692Z,45.94
2023-06-11T09:16:46.483Z,46.66
2023-06-11T09:19:18.771Z,45.76
2023-06-11T09:21:53.313Z,45.08
2023-06-11T09:24:21.921Z,45.99
2023-06-11T09:26:56.648Z,45.19
2023-06-11T09:29:24.783Z,45.41
2023-06-11T09:32:31.166Z,44.80
2023-06-11T09:34:57.062Z,44.10
2023-06-11T09:37:24.825Z,44.37
2023-06-11T09:39:51.611Z,45.94
2023-06-11T09:42:28.186Z,45.11
2023-06-11T09:45:00.061Z,45.54
2023-06-11T09:47:29.511Z,44.72
2023-06-11T09:49:57.464Z,43.61
2023-06-11T09:52:24.187Z,43.91
2023-06-11T09:54:51.893Z,44.75
2023-06-11T09:57:18.802Z,44.95
2023-06-11T09:59:46.385Z,44.30
2023-06-11T10:02:13.323Z,42.53
2023-06-11T10:04:40.111Z,41.52
2023-06-11T10:07:08.105Z,42.54
2023-06-11T10:09:35.493Z,43.31
2023-06-11T10:12:02.311Z,42.38
2023-06-11T10:14:31.471Z,41.20
2023-06-11T10:16:58.570Z,40.28
2023-06-11T10:19:35.726Z,40.10
2023-06-11T10:22:03.191Z,41.54
2023-06-11T10:24:30.247Z,40.76
2023-06-11T10:27:06.597Z,42.03
2023-06-11T10:29:43.620Z,41.60
2023-06-11T10:32:22.177Z,40.56
2023-06-11T10:34:57.565Z,39.08
2023-06-11T10:37:29.924Z,39.54
2023-06-11T10:39:56.797Z,39.42
2023-06-11T10:42:44.529Z,39.31
2023-06-11T10:45:13.468Z,38.64
2023-06-11T10:47:45.005Z,37.32
2023-06-11T10:50:14.341Z,37.50
2023-06-11T10:52:51.467Z,38.31
2023-06-11T10:55:22.833Z,36.64
2023-06-11T10:57:53.834Z,36.38
2023-06-11T11:00:21.108Z,34.73
2023-06-11T11:02:48.467Z,34.29
2023-06-11T11:05:15.414Z,34.22
2023-06-11T11:07:46.021Z,33.46
2023-06-11T11:10:20.043Z,33.07
2023-06-11T11:12:48.077Z,33.09
2023-06-11T11:15:16.042Z,31.85
2023-06-11T11:17:44.733Z,33.47
2023-06-11T11:20:18.393Z,33.59
2023-06-11T11:22:55.543Z,35.03
2023-06-11T11:25:25.464Z,34.49
2023-06-11T11:27:52.095Z,35.47
2023-06-11T11:30:19.095Z,34.39
2023-06-11T11:32:46.317Z,35.08
2023-06-11T11:35:15.836Z,34.49
2023-06-11T11:37:45.670Z,34.04
2023-06-11T11:40:13.175Z,33.36
2023-06-11T11:42:53.884Z,33.03
2023-06-11T11:45:34.792Z,33.03
2023-06-11T11:48:05.029Z,32.59
2023-06-11T11:50:32.864Z,32.72
2023-06-11T11:53:08.249Z,31.40
2023-06-11T11:55:41.975Z,31.94
2023-06-11T11:58:16.703Z,32.21
2023-06-11T12:00:54.576Z,33.20
2023-06-11T12:03:22.808Z,34.27
2023-06-11T12:06:02.837Z,35.15
2023-06-11T12:08:31.310Z,33.16
2023-06-11T12:10:59.028Z,31.58
2023-06-11T12:13:26.118Z,32.81
2023-06-11T12:15:53.393Z,32.47
2023-06-11T12:18:20.197Z,32.90
2023-06-11T12:20:47.773Z,34.56
2023-06-11T12:23:14.348Z,32.82
2023-06-11T12:25:41.366Z,32.91
2023-06-11T12:28:07.943Z,34.03
2023-06-11T12:30:36.009Z,33.74
2023-06-11T12:33:02.714Z,32.87
2023-06-11T12:35:30.671Z,32.70
2023-06-11T12:37:57.840Z,31.50
2023-06-11T12:40:24.871Z,31.53
2023-06-11T12:42:57.801Z,30.96
2023-06-11T12:45:27.162Z,32.67
2023-06-11T12:47:53.921Z,31.04
2023-06-11T12:50:24.069Z,30.70
2023-06-11T12:52:53.361Z,30.74
2023-06-11T12:55:20.640Z,31.79
2023-06-11T12:57:47.418Z,32.86
2023-06-11T13:00:14.969Z,31.59
2023-06-11T13:02:42.402Z,30.74
2023-06-11T13:05:09.460Z,28.68
2023-06-11T13:07:36.068Z,28.27
2023-06-11T13:10:03.210Z,27.82
2023-06-11T13:12:29.878Z,28.18
2023-06-11T13:14:56.654Z,30.75
2023-06-11T13:17:23.290Z,32.09
2023-06-11T13:19:50.053Z,33.04
2023-06-11T13:22:17.309Z,32.58
2023-06-11T13:24:44.059Z,32.12
2023-06-11T13:27:10.823Z,32.52
2023-06-11T13:29:37.605Z,33.11
2023-06-11T13:32:04.840Z,34.12
2023-06-11T13:34:33.823Z,34.69
2023-06-11T13:37:02.219Z,35.23
2023-06-11T13:39:29.004Z,34.38
2023-06-11T13:41:55.812Z,31.85
2023-06-11T13:44:24.956Z,32.25
2023-06-11T13:46:52.400Z,32.71
2023-06-11T13:49:19.192Z,32.27
2023-06-11T13:51:45.799Z,32.66
2023-06-11T13:54:12.472Z,32.47
2023-06-11T13:56:40.028Z,31.88
2023-06-11T13:59:06.641Z,30.75
2023-06-11T14:01:33.428Z,29.58
2023-06-11T14:04:00.222Z,28.46
2023-06-11T14:06:26.950Z,28.38
2023-06-11T14:08:53.588Z,28.22
2023-06-11T14:11:20.479Z,27.71
2023-06-11T14:13:47.267Z,27.95
2023-06-11T14:16:13.908Z,28.04
2023-06-11T14:18:40.601Z,27.48
2023-06-11T14:21:07.281Z,27.27
2023-06-11T14:23:33.977Z,25.82
2023-06-11T14:26:00.884Z,26.05
2023-06-11T14:28:29.624Z,25.66
2023-06-11T14:30:56.303Z,26.50
2023-06-11T14:33:22.960Z,26.77
2023-06-11T14:35:51.643Z,25.74
2023-06-11T14:38:19.164Z,26.01
2023-06-11T14:40:45.931Z,24.98
2023-06-11T14:43:12.507Z,25.09
2023-06-11T14:45:41.336Z,24.21
2023-06-11T14:48:08.524Z,23.39
2023-06-11T14:50:35.516Z,25.06
2023-06-11T14:53:02.340Z,24.38
2023-06-11T14:55:28.946Z,24.21
2023-06-11T14:57:55.594Z,24.43
2023-06-11T15:00:22.401Z,25.04
2023-06-11T15:02:49.197Z,24.53
2023-06-11T15:05:16.713Z,24.53
2023-06-11T15:07:43.379Z,24.39
2023-06-11T15:10:11.713Z,25.68
2023-06-11T15:12:38.619Z,24.97
2023-06-11T15:15:06.400Z,25.08
2023-06-11T15:17:37.237Z,25.80
2023-06-11T15:20:08.367Z,26.68
2023-06-11T15:22:40.465Z,26.50
2023-06-11T15:25:10.817Z,26.66
2023-06-11T15:27:37.858Z,27.21
2023-06-11T15:30:05.289Z,27.81
2023-06-11T15:32:32.081Z,28.05
2023-06-11T15:34:59.119Z,28.52
2023-06-11T15:37:26.006Z,28.39
2023-06-11T15:39:52.959Z,28.73
2023-06-11T15:42:20.059Z,29.09
2023-06-11T15:44:49.257Z,29.60
2023-06-11T15:47:16.464Z,29.40
2023-06-11T15:49:43.152Z,29.28
2023-06-11T15:52:09.823Z,29.79
2023-06-11T15:54:36.504Z,29.77
2023-06-11T15:57:03.276Z,29.90
2023-06-11T15:59:29.919Z,30.20
2023-06-11T16:01:56.721Z,30.36
2023-06-11T16:04:26.011Z,30.62
2023-06-11T16:06:52.707Z,31.09
2023-06-11T16:09:20.611Z,31.33
2023-06-11T16:11:47.277Z,31.42
2023-06-11T16:14:16.026Z,31.43
2023-06-11T16:16:43.337Z,31.10
2023-06-11T16:19:10.153Z,30.79
2023-06-11T16:21:37.868Z,30.59
2023-06-11T16:24:05.799Z,30.57
2023-06-11T16:26:32.633Z,30.78
2023-06-11T16:28:59.420Z,31.00
2023-06-11T16:31:26.344Z,30.98
2023-06-11T16:33:58.415Z,31.05
2023-06-11T16:36:27.230Z,30.47
2023-06-11T16:38:53.904Z,30.52
2023-06-11T16:41:21.883Z,31.34
2023-06-11T16:43:51.719Z,30.88
2023-06-11T16:46:19.069Z,30.70
2023-06-11T16:48:46.858Z,30.65
2023-06-11T16:51:13.609Z,31.04
2023-06-11T16:53:40.257Z,30.95
2023-06-11T16:56:06.876Z,31.16
2023-06-11T16:58:33.528Z,31.14
2023-06-11T17:01:00.412Z,31.49
2023-06-11T17:03:27.208Z,32.10
2023-06-11T17:05:53.886Z,31.23
2023-06-11T17:08:20.742Z,32.04
2023-06-11T17:10:47.357Z,31.52
2023-06-11T17:13:13.973Z,31.99
2023-06-11T17:15:40.567Z,31.97
2023-06-11T17:18:07.243Z,32.06
2023-06-11T17:20:35.121Z,32.63
2023-06-11T17:23:02.226Z,33.37
2023-06-11T17:25:28.813Z,32.85
2023-06-11T17:27:55.436Z,32.00
2023-06-11T17:30:22.117Z,31.97
2023-06-11T17:32:48.780Z,31.77
2023-06-11T17:35:15.587Z,32.05
2023-06-11T17:37:42.365Z,32.48
2023-06-11T17:40:09.896Z,32.72
2023-06-11T17:42:41.763Z,32.29
2023-06-11T17:45:09.917Z,32.75
2023-06-11T17:47:39.915Z,33.21
2023-06-11T17:50:07.409Z,33.34
2023-06-11T17:52:34.578Z,33.44
2023-06-11T17:55:01.199Z,33.73
2023-06-11T17:57:27.803Z,33.54
2023-06-11T17:59:54.373Z,34.06
2023-06-11T18:02:21.568Z,35.22
2023-06-11T18:04:48.273Z,35.88
2023-06-11T18:07:14.892Z,35.61
2023-06-11T18:09:41.496Z,36.03
2023-06-11T18:12:08.764Z,36.14
2023-06-11T18:14:35.485Z,36.37
2023-06-11T18:17:02.148Z,36.90
2023-06-11T18:19:28.891Z,37.28
2023-06-11T18:21:55.453Z,36.20
2023-06-11T18:24:22.196Z,35.91
2023-06-11T18:26:48.850Z,36.15
2023-06-11T18:29:15.444Z,35.49
2023-06-11T18:31:42.015Z,35.51
2023-06-11T18:34:08.623Z,34.65
2023-06-11T18:36:35.680Z,35.67
2023-06-11T18:39:04.031Z,34.73
2023-06-11T18:41:31.277Z,34.76
2023-06-11T18:43:57.999Z,34.74
2023-06-11T18:46:25.851Z,34.13
2023-06-11T18:48:52.669Z,34.48
2023-06-11T18:51:19.573Z,34.87
2023-06-11T18:53:46.337Z,34.51
2023-06-11T18:56:13.377Z,34.88
2023-06-11T18:58:40.032Z,34.53
2023-06-11T19:01:06.726Z,36.05
2023-06-11T19:03:36.230Z,36.60
2023-06-11T19:06:05.484Z,37.11
2023-06-11T19:08:32.058Z,36.35
2023-06-11T19:10:58.657Z,35.60
2023-06-11T19:13:25.679Z,35.74
2023-06-11T19:15:52.366Z,36.67
2023-06-11T19:18:19.238Z,36.69
2023-06-11T19:20:45.925Z,36.00
2023-06-11T19:23:14.578Z,36.11
2023-06-11T19:25:41.658Z,35.74
2023-06-11T19:28:08.343Z,36.25
2023-06-11T19:30:34.991Z,37.28
2023-06-11T19:33:01.834Z,36.13
2023-06-11T19:35:28.692Z,37.20
2023-06-11T19:37:55.362Z,37.45
2023-06-11T19:40:22.073Z,38.04
2023-06-11T19:42:48.674Z,38.11
2023-06-11T19:45:18.982Z,38.01
2023-06-11T19:47:45.809Z,39.04
2023-06-11T19:50:12.729Z,38.85
2023-06-11T19:52:39.574Z,37.94
2023-06-11T19:55:06.454Z,38.92
2023-06-11T19:57:33.036Z,39.54
2023-06-11T20:00:00.657Z,40.42
2023-06-11T20:02:28.111Z,39.84
2023-06-11T20:04:54.996Z,39.79
2023-06-11T20:07:21.868Z,41.01
2023-06-11T20:09:48.567Z,41.20
2023-06-11T20:12:15.232Z,40.90
2023-06-11T20:14:41.896Z,41.44
2023-06-11T20:17:08.530Z,41.21
2023-06-11T20:19:36.908Z,41.25
2023-06-11T20:22:07.134Z,40.80
2023-06-11T20:24:33.834Z,41.02
2023-06-11T20:27:00.527Z,41.11
2023-06-11T20:29:27.117Z,41.99
2023-06-11T20:31:53.803Z,42.44
2023-06-11T20:34:20.695Z,42.43
2023-06-11T20:36:47.922Z,42.88
2023-06-11T20:39:14.547Z,43.51
2023-06-11T20:41:41.172Z,43.83
2023-06-11T20:44:07.791Z,43.77
2023-06-11T20:46:34.481Z,44.16
2023-06-11T20:49:01.188Z,44.54
2023-06-11T20:51:27.928Z,44.60
2023-06-11T20:53:54.575Z,45.09
2023-06-11T20:56:22.814Z,45.10
2023-06-11T20:58:49.600Z,44.64
2023-06-11T21:01:16.569Z,44.60
2023-06-11T21:03:43.387Z,43.03
2023-06-11T21:06:10.093Z,43.25
2023-06-11T21:08:36.726Z,43.99
2023-06-11T21:11:03.323Z,43.10
2023-06-11T21:13:30.471Z,43.83
2023-06-11T21:15:57.292Z,44.89
2023-06-11T21:18:24.010Z,45.61
2023-06-11T21:20:50.794Z,45.95
2023-06-11T21:23:17.438Z,45.99
2023-06-11T21:25:44.120Z,46.55
2023-06-11T21:28:10.713Z,46.57
2023-06-11T21:30:37.998Z,47.16
2023-06-11T21:33:04.815Z,43.94
2023-06-11T21:35:31.685Z,45.13
2023-06-11T21:37:58.389Z,45.37
2023-06-11T21:40:25.004Z,45.44
2023-06-11T21:42:51.587Z,46.53
2023-06-11T21:45:18.161Z,46.86
2023-06-11T21:47:44.753Z,46.78
2023-06-11T21:50:11.813Z,46.31
2023-06-11T21:52:39.442Z,47.37
2023-06-11T21:55:07.343Z,47.41
2023-06-11T21:57:34.254Z,48.23
2023-06-11T22:00:12.720Z,47.82
2023-06-11T22:02:43.818Z,44.70
2023-06-11T22:05:13.401Z,46.87
2023-06-11T22:07:40.586Z,47.34
2023-06-11T22:10:09.334Z,48.15
2023-06-11T22:12:41.049Z,48.11
2023-06-11T22:15:09.925Z,48.35
2023-06-11T22:17:38.154Z,48.42
2023-06-11T22:20:10.235Z,46.52
2023-06-11T22:22:39.130Z,45.81
2023-06-11T22:25:06.849Z,47.55
2023-06-11T22:27:33.616Z,48.44
2023-06-11T22:30:00.565Z,46.22
2023-06-11T22:32:27.590Z,44.32
2023-06-11T22:34:54.308Z,44.92
2023-06-11T22:37:20.902Z,46.31
2023-06-11T22:39:47.507Z,45.58
2023-06-11T22:42:14.113Z,44.01
2023-06-11T22:44:40.669Z,43.80
2023-06-11T22:47:07.698Z,43.21
2023-06-11T22:49:35.187Z,43.35
2023-06-11T22:52:02.039Z,43.39
2023-06-11T22:54:29.061Z,43.24
2023-06-11T22:56:55.629Z,41.98
2023-06-11T22:59:22.225Z,42.55
2023-06-11T23:01:49.555Z,44.55
2023-06-11T23:04:16.673Z,43.07
2023-06-11T23:06:51.005Z,42.07
2023-06-11T23:09:19.541Z,44.17
2023-06-11T23:11:47.179Z,45.18
2023-06-11T23:14:15.583Z,46.14
2023-06-11T23:16:48.664Z,46.94
2023-06-11T23:19:18.553Z,47.64
2023-06-11T23:21:45.646Z,48.70
2023-06-11T23:24:12.806Z,49.01
2023-06-11T23:26:45.048Z,49.32
2023-06-11T23:29:13.554Z,48.78
2023-06-11T23:31:40.482Z,46.71
2023-06-11T23:34:07.102Z,46.75
2023-06-11T23:36:40.949Z,46.98
2023-06-11T23:39:11.171Z,47.31
2023-06-11T23:41:37.736Z,48.22
2023-06-11T23:44:04.771Z,48.51
2023-06-11T23:46:32.247Z,50.42
2023-06-11T23:48:58.887Z,50.19
2023-06-11T23:51:25.767Z,51.21
2023-06-11T23:53:53.629Z,51.46
2023-06-11T23:56:20.542Z,51.14
2023-06-11T23:58:47.432Z,50.84
